LGW weather

London Gatwick Airport
London, England, United Kingdom

Public forecast

Using degrees Celsius for public forecast. Weather courtesy of forecast.io.

METAR (pilot weather report)

Retrieved 2018/06/19 08:20 UTC (0 seconds ago):

EGKK 190820Z 23006KT 180V270 9999 SCT017 BKN023 19/16 Q1024

TAF (pilot weather forecast)

Retrieved 2018/06/19 06:15 UTC (2 hours ago):

TAF EGKK 190503Z 1906/2012 24009KT 9999 BKN018 TEMPO 1906/1910 BKN014 TEMPO 1922/2010 BKN007 PROB40 2000/2007 4000 BR BKN004